Time;durP1;ratioP1;P1;durP2;ratioP2;P2;SDS_P1;SDS_P2;PMS_P1;PMS_P2;Temp;Humidity;BMP_temperature;BMP_pressure;BME280_temperature;BME280_humidity;BME280_pressure;Samples;Min_cycle;Max_cycle;Signal;HPM_P1;HPM_P2
2023/04/06 00:03:23;;;;;;;18.05;10.05;;;-1.10;99.90;;;;;;20743776;28;20038;-55
2023/04/06 00:13:27;;;;;;;15.57;9.65;;;-1.10;99.90;;;;;;20742702;28;20194;-55
2023/04/06 00:23:29;;;;;;;16.73;9.82;;;-0.90;99.90;;;;;;20741900;28;20482;-48
2023/04/06 00:33:31;;;;;;;17.83;9.50;;;-0.80;99.90;;;;;;20741506;28;20490;-53
2023/04/06 00:43:33;;;;;;;21.63;10.27;;;-0.90;99.90;;;;;;20747413;28;20053;-51
2023/04/06 00:53:35;;;;;;;16.52;10.20;;;-1.20;99.90;;;;;;20740636;28;20037;-47
2023/04/06 01:03:37;;;;;;;18.50;10.20;;;-1.40;99.90;;;;;;20739693;28;20084;-48
2023/04/06 01:13:40;;;;;;;19.08;10.43;;;-1.40;99.90;;;;;;20738983;28;20045;-50
2023/04/06 01:23:48;;;;;;;18.33;11.15;;;-1.40;99.90;;;;;;20737658;28;20041;-48
2023/04/06 01:33:57;;;;;;;20.08;11.02;;;-1.80;99.90;;;;;;20737552;28;20044;-49
2023/04/06 01:44:01;;;;;;;21.88;11.95;;;-2.20;99.90;;;;;;20721763;28;20375;-50
2023/04/06 01:54:05;;;;;;;22.42;12.63;;;-2.50;99.90;;;;;;20736640;28;20037;-48
2023/04/06 02:04:25;;;;;;;;;;;-2.70;99.90;;;;;;20738190;28;20050;-51
2023/04/06 02:14:35;;;;;;;23.23;13.40;;;-2.80;99.90;;;;;;20741012;28;20147;-51
2023/04/06 02:24:37;;;;;;;25.65;11.90;;;-2.80;99.90;;;;;;20752192;28;20041;-47
2023/04/06 02:34:38;;;;;;;28.33;13.40;;;-2.90;99.90;;;;;;20751758;28;20164;-47
2023/04/06 02:44:42;;;;;;;28.35;13.60;;;-2.80;99.90;;;;;;20751532;28;20061;-52
2023/04/06 02:54:44;;;;;;;25.27;13.85;;;-2.80;99.90;;;;;;20755598;28;20431;-47
2023/04/06 03:04:47;;;;;;;24.52;13.35;;;-2.80;99.90;;;;;;20734369;28;20037;-47
2023/04/06 03:15:11;;;;;;;25.98;13.23;;;-2.80;99.90;;;;;;20747683;28;20088;-51
2023/04/06 03:25:16;;;;;;;27.13;14.10;;;-2.80;99.90;;;;;;20745719;28;20060;-50
2023/04/06 03:35:20;;;;;;;25.52;14.00;;;-2.80;99.90;;;;;;20745695;28;20438;-52
2023/04/06 03:45:21;;;;;;;27.23;13.80;;;-3.00;99.90;;;;;;20744742;28;20533;-49
2023/04/06 03:55:25;;;;;;;29.80;13.73;;;-3.10;99.90;;;;;;20745153;28;20038;-50
2023/04/06 04:05:27;;;;;;;25.13;13.18;;;-3.00;99.90;;;;;;20744743;28;20037;-45
2023/04/06 04:15:29;;;;;;;24.08;12.93;;;-2.90;99.90;;;;;;20743196;28;20033;-51
2023/04/06 04:25:31;;;;;;;27.25;15.15;;;-2.80;99.90;;;;;;20742937;28;20120;-49
2023/04/06 04:35:33;;;;;;;25.77;13.98;;;-2.60;99.90;;;;;;20740034;28;20383;-46
2023/04/06 04:45:34;;;;;;;24.65;13.77;;;-2.50;99.90;;;;;;20741549;28;20438;-45
2023/04/06 04:55:53;;;;;;;27.42;13.35;;;-2.40;99.90;;;;;;20739556;28;20030;-50
2023/04/06 05:05:55;;;;;;;27.52;13.15;;;-2.30;99.90;;;;;;20740179;28;20072;-47
2023/04/06 05:16:00;;;;;;;23.98;13.63;;;-2.00;99.90;;;;;;20734339;28;20450;-52
2023/04/06 05:26:06;;;;;;;22.75;13.30;;;-1.90;99.90;;;;;;20739337;28;20034;-47
2023/04/06 05:36:08;;;;;;;24.30;12.82;;;-1.70;99.90;;;;;;20720721;28;20056;-56
2023/04/06 05:46:14;;;;;;;21.30;11.77;;;-1.40;99.90;;;;;;20708296;28;20474;-50
2023/04/06 05:56:16;;;;;;;21.50;11.75;;;-1.10;99.90;;;;;;20753211;28;20037;-50
2023/04/06 06:06:19;;;;;;;17.13;10.57;;;-0.50;99.90;;;;;;20752582;28;20081;-51
2023/04/06 06:16:46;;;;;;;13.95;9.45;;;0.10;99.90;;;;;;20751754;28;20045;-55
2023/04/06 06:26:50;;;;;;;14.43;9.60;;;0.30;99.90;;;;;;20750963;28;20406;-57
2023/04/06 06:36:55;;;;;;;17.35;9.68;;;0.40;99.90;;;;;;20749450;28;20037;-55
2023/04/06 06:46:57;;;;;;;10.48;7.03;;;0.30;99.90;;;;;;20750821;28;20064;-51
2023/04/06 06:57:00;;;;;;;11.55;6.65;;;1.20;99.90;;;;;;20749238;28;20399;-49
2023/04/06 07:07:03;;;;;;;8.30;5.55;;;2.90;99.90;;;;;;20749121;28;20037;-59
2023/04/06 07:17:05;;;;;;;8.45;5.80;;;4.00;99.90;;;;;;20747085;28;20104;-50
2023/04/06 07:27:07;;;;;;;8.40;6.18;;;4.60;98.80;;;;;;20747410;28;20030;-48
2023/04/06 07:37:09;;;;;;;11.63;7.28;;;5.10;97.80;;;;;;20745637;28;20034;-52
2023/04/06 07:47:11;;;;;;;11.85;7.40;;;5.40;97.20;;;;;;20745234;28;20471;-48
2023/04/06 07:57:12;;;;;;;8.55;6.50;;;5.80;97.00;;;;;;20745153;28;20064;-47
2023/04/06 08:07:14;;;;;;;13.07;7.28;;;6.20;96.70;;;;;;20745353;28;20110;-50
2023/04/06 08:17:16;;;;;;;12.82;8.30;;;6.90;96.10;;;;;;20743939;28;20046;-50
2023/04/06 08:27:17;;;;;;;13.23;7.80;;;7.50;97.00;;;;;;20743043;28;20414;-59
2023/04/06 08:37:19;;;;;;;10.93;7.88;;;8.40;94.20;;;;;;20741615;28;20050;-52
2023/04/06 08:47:21;;;;;;;12.02;8.07;;;8.90;94.70;;;;;;20739197;28;20052;-48
2023/04/06 08:57:24;;;;;;;10.60;7.40;;;9.00;93.30;;;;;;20737279;28;20088;-58
2023/04/06 09:07:29;;;;;;;12.43;7.40;;;9.30;91.20;;;;;;20735830;28;20037;-49
2023/04/06 09:17:33;;;;;;;11.57;6.65;;;9.20;92.50;;;;;;20739212;28;20046;-47
2023/04/06 09:27:36;;;;;;;9.07;6.05;;;9.20;94.20;;;;;;20736873;28;20034;-59
2023/04/06 09:37:38;;;;;;;10.15;5.25;;;10.60;92.00;;;;;;20738211;28;20108;-58
2023/04/06 09:47:43;;;;;;;7.30;5.63;;;10.80;88.80;;;;;;20738159;28;20034;-49
2023/04/06 09:57:57;;;;;;;7.85;4.68;;;9.50;88.70;;;;;;20737275;28;20076;-58
2023/04/06 10:08:04;;;;;;;7.75;5.00;;;9.50;85.70;;;;;;20737203;28;20038;-47
2023/04/06 10:18:07;;;;;;;5.88;4.20;;;9.80;79.50;;;;;;20736761;28;20088;-47
2023/04/06 10:28:11;;;;;;;9.77;4.80;;;9.60;81.50;;;;;;20736142;28;20433;-47
2023/04/06 10:38:14;;;;;;;6.85;4.95;;;9.70;84.00;;;;;;20744611;28;20616;-58
2023/04/06 10:48:16;;;;;;;7.50;5.22;;;10.70;85.80;;;;;;20751695;28;20045;-50
2023/04/06 10:58:19;;;;;;;7.80;5.50;;;11.00;82.70;;;;;;20748883;28;20069;-50
2023/04/06 11:08:29;;;;;;;8.93;6.22;;;11.00;85.20;;;;;;20746416;28;20391;-58
2023/04/06 11:18:31;;;;;;;10.02;6.43;;;11.10;79.70;;;;;;20747393;28;20096;-58
2023/04/06 11:28:33;;;;;;;8.65;6.22;;;10.60;82.50;;;;;;20746358;28;20034;-49
2023/04/06 11:38:39;;;;;;;10.00;6.10;;;10.70;84.20;;;;;;20746208;28;20096;-50
2023/04/06 11:48:45;;;;;;;9.70;6.53;;;11.30;78.50;;;;;;20743996;28;20042;-46
2023/04/06 11:58:47;;;;;;;8.50;6.18;;;11.10;89.50;;;;;;20744558;28;20452;-47
2023/04/06 12:08:48;;;;;;;10.63;6.30;;;11.80;84.50;;;;;;20741136;28;20104;-47
2023/04/06 12:18:51;;;;;;;11.35;7.18;;;11.80;83.60;;;;;;20743005;28;20448;-49
2023/04/06 12:28:53;;;;;;;14.05;6.97;;;11.60;88.60;;;;;;20742301;28;20034;-49
2023/04/06 12:38:56;;;;;;;9.63;7.20;;;11.50;83.40;;;;;;20739682;28;20037;-49
2023/04/06 12:48:58;;;;;;;10.57;7.43;;;11.60;81.80;;;;;;20741414;28;20633;-58
2023/04/06 12:59:00;;;;;;;12.70;8.13;;;11.50;83.10;;;;;;20727618;28;20037;-49
2023/04/06 13:09:04;;;;;;;13.70;8.45;;;11.40;86.20;;;;;;20734299;28;20034;-49
2023/04/06 13:19:05;;;;;;;12.07;8.25;;;11.50;83.30;;;;;;20739226;28;20049;-47
2023/04/06 13:29:07;;;;;;;12.90;8.30;;;11.40;84.30;;;;;;20736375;28;20049;-50
2023/04/06 13:39:10;;;;;;;13.30;8.65;;;11.50;81.90;;;;;;20738105;28;20056;-46
2023/04/06 13:49:12;;;;;;;11.52;8.43;;;11.60;83.20;;;;;;20721765;28;20384;-59
2023/04/06 13:59:14;;;;;;;12.90;8.60;;;11.40;83.60;;;;;;20735695;28;20061;-59
2023/04/06 14:09:17;;;;;;;14.25;8.30;;;10.90;82.30;;;;;;20740022;28;20084;-50
2023/04/06 14:19:19;;;;;;;14.70;8.32;;;10.60;82.50;;;;;;20745922;28;20042;-47
2023/04/06 14:29:20;;;;;;;11.77;8.68;;;10.10;84.50;;;;;;20747201;28;20030;-47
2023/04/06 14:39:22;;;;;;;12.98;8.70;;;9.90;82.50;;;;;;20748247;28;20037;-51
2023/04/06 14:49:23;;;;;;;15.82;8.65;;;9.50;84.00;;;;;;20752322;28;20042;-51
2023/04/06 14:59:25;;;;;;;13.23;8.23;;;9.10;84.30;;;;;;20747528;28;20084;-59
2023/04/06 15:09:27;;;;;;;11.68;8.50;;;9.00;83.50;;;;;;20746443;28;20041;-49
2023/04/06 15:19:28;;;;;;;11.88;8.68;;;8.60;84.10;;;;;;20746060;28;20065;-51
2023/04/06 15:29:31;;;;;;;13.38;9.07;;;7.90;85.50;;;;;;20747327;28;20026;-52
2023/04/06 15:39:32;;;;;;;15.25;7.95;;;7.30;86.20;;;;;;20743185;28;20061;-58
2023/04/06 15:49:34;;;;;;;12.48;8.35;;;6.70;85.70;;;;;;20745956;28;20034;-50
2023/04/06 15:59:36;;;;;;;14.30;8.38;;;6.30;90.00;;;;;;20744667;28;20068;-58
2023/04/06 16:09:38;;;;;;;11.27;8.07;;;6.00;89.60;;;;;;20744099;28;20076;-49
2023/04/06 16:19:40;;;;;;;12.90;8.75;;;5.80;90.90;;;;;;20743460;28;20116;-58
2023/04/06 16:29:42;;;;;;;15.48;8.43;;;6.00;90.60;;;;;;20740896;28;20069;-49
2023/04/06 16:39:44;;;;;;;11.88;8.02;;;5.70;91.80;;;;;;20738311;28;20069;-48
2023/04/06 16:49:46;;;;;;;13.52;8.02;;;5.60;91.20;;;;;;20750109;28;20033;-49
2023/04/06 16:59:47;;;;;;;13.73;8.32;;;5.20;90.90;;;;;;20738697;28;20038;-58
2023/04/06 17:09:49;;;;;;;12.15;7.60;;;4.70;92.30;;;;;;20740050;28;20036;-50
2023/04/06 17:19:51;;;;;;;20.33;8.55;;;4.30;92.70;;;;;;20739063;28;20045;-50
2023/04/06 17:29:53;;;;;;;17.88;7.60;;;3.70;92.70;;;;;;20739016;28;20036;-58
2023/04/06 17:39:57;;;;;;;17.55;8.70;;;3.30;94.10;;;;;;20736320;28;20030;-57
2023/04/06 17:49:59;;;;;;;19.83;8.70;;;2.80;94.90;;;;;;20753450;28;20380;-57
2023/04/06 18:00:01;;;;;;;15.25;8.02;;;2.30;96.40;;;;;;20754353;28;20467;-51
2023/04/06 18:10:03;;;;;;;15.60;8.80;;;1.90;96.50;;;;;;20753579;28;20372;-49
2023/04/06 18:20:05;;;;;;;13.80;8.68;;;1.70;97.00;;;;;;20752807;28;20042;-57
2023/04/06 18:30:07;;;;;;;13.98;8.52;;;1.50;97.90;;;;;;20727565;28;20488;-49
2023/04/06 18:40:36;;;;;;;14.40;8.38;;;1.40;98.40;;;;;;20748557;28;20038;-50
2023/04/06 18:50:38;;;;;;;16.85;9.27;;;1.30;98.30;;;;;;20721496;28;20103;-48
2023/04/06 19:00:40;;;;;;;12.88;8.60;;;1.20;98.70;;;;;;20748553;28;20033;-51
2023/04/06 19:10:42;;;;;;;15.68;8.20;;;1.30;98.70;;;;;;20741548;28;20034;-50
2023/04/06 19:20:44;;;;;;;15.80;9.00;;;1.70;96.80;;;;;;20748459;28;20403;-51
2023/04/06 19:30:46;;;;;;;16.58;8.23;;;1.90;97.50;;;;;;20746550;28;20092;-58
2023/04/06 19:40:47;;;;;;;13.15;8.35;;;1.60;98.10;;;;;;20747093;28;20034;-57
2023/04/06 19:50:53;;;;;;;13.95;8.73;;;1.60;97.60;;;;;;20746291;28;20096;-58
2023/04/06 20:00:55;;;;;;;16.90;8.98;;;1.80;97.40;;;;;;20745612;28;20033;-48
2023/04/06 20:11:06;;;;;;;14.07;8.27;;;1.80;97.40;;;;;;20744679;28;20076;-51
2023/04/06 20:21:08;;;;;;;14.15;7.97;;;1.80;97.30;;;;;;20742686;28;20195;-51
2023/04/06 20:31:11;;;;;;;14.00;8.13;;;1.80;97.50;;;;;;20743366;28;20434;-49
2023/04/06 20:41:12;;;;;;;16.48;8.63;;;1.70;97.30;;;;;;20742664;28;20049;-47
2023/04/06 20:51:19;;;;;;;13.77;8.27;;;1.60;97.80;;;;;;20742055;28;20454;-50
2023/04/06 21:01:21;;;;;;;12.73;7.85;;;1.30;98.40;;;;;;20741160;28;20088;-50
2023/04/06 21:11:22;;;;;;;15.65;8.35;;;1.50;98.30;;;;;;20739957;28;20029;-51
2023/04/06 21:21:24;;;;;;;12.35;7.75;;;1.60;98.30;;;;;;20739533;28;20037;-48
2023/04/06 21:31:26;;;;;;;14.48;7.75;;;1.70;97.60;;;;;;20739460;28;20471;-47
2023/04/06 21:41:28;;;;;;;14.02;7.43;;;1.90;98.00;;;;;;20737902;28;20112;-51
2023/04/06 21:51:31;;;;;;;11.60;7.20;;;2.00;97.80;;;;;;20738839;28;20034;-47
2023/04/06 22:01:32;;;;;;;13.52;7.70;;;1.90;98.20;;;;;;20738257;28;20034;-48
2023/04/06 22:11:34;;;;;;;13.00;7.93;;;1.70;98.20;;;;;;20737616;28;20049;-50
2023/04/06 22:21:36;;;;;;;13.25;7.38;;;1.70;98.40;;;;;;20737677;28;20088;-48
2023/04/06 22:31:38;;;;;;;15.23;8.05;;;1.70;98.80;;;;;;20744055;28;20037;-48
2023/04/06 22:41:39;;;;;;;14.40;8.15;;;1.70;98.40;;;;;;20751712;28;20029;-50
2023/04/06 22:51:41;;;;;;;12.50;7.75;;;1.90;97.70;;;;;;20751152;28;20029;-47
2023/04/06 23:01:43;;;;;;;15.43;8.02;;;2.00;97.80;;;;;;20750243;28;20033;-50
2023/04/06 23:11:44;;;;;;;14.38;7.97;;;1.90;97.90;;;;;;20749413;28;20487;-48
2023/04/06 23:21:46;;;;;;;11.80;7.50;;;1.80;98.50;;;;;;20748928;28;20034;-49
2023/04/06 23:31:48;;;;;;;15.13;8.05;;;1.70;98.70;;;;;;20747936;28;20545;-49
2023/04/06 23:41:49;;;;;;;15.93;8.18;;;1.80;98.10;;;;;;20745182;28;20030;-47
2023/04/06 23:51:51;;;;;;;12.50;7.53;;;1.90;98.40;;;;;;20745124;28;20116;-47
